Time;durP1;ratioP1;P1;durP2;ratioP2;P2;SDS_P1;SDS_P2;PMS_P1;PMS_P2;Temp;Humidity;BMP_temperature;BMP_pressure;BME280_temperature;BME280_humidity;BME280_pressure;Samples;Min_cycle;Max_cycle;Signal;HPM_P1;HPM_P2
2023/02/24 00:02:22;;;;;;;10.05;1.60;;;;;;;1.17;100.00;101792.00;5074995;28;20050;-78
2023/02/24 00:04:51;;;;;;;7.72;1.27;;;;;;;1.20;100.00;101789.28;5057807;28;20432;-78
2023/02/24 00:07:17;;;;;;;6.38;1.48;;;;;;;1.21;100.00;101790.16;5075398;28;20032;-77
2023/02/24 00:09:47;;;;;;;7.25;1.40;;;;;;;1.24;100.00;101776.94;5075095;28;20032;-78
2023/02/24 00:12:14;;;;;;;10.68;2.00;;;;;;;1.26;100.00;101782.09;5058402;28;20070;-77
2023/02/24 00:14:42;;;;;;;9.30;1.48;;;;;;;1.26;100.00;101777.72;5075167;28;20040;-78
2023/02/24 00:17:08;;;;;;;11.23;1.63;;;;;;;1.21;100.00;101770.00;5075047;28;20094;-78
2023/02/24 00:19:35;;;;;;;13.10;2.38;;;;;;;1.17;100.00;101770.19;5057137;28;20410;-77
2023/02/24 00:22:02;;;;;;;5.30;1.45;;;;;;;1.18;100.00;101758.78;5075233;28;20055;-78
2023/02/24 00:24:28;;;;;;;3.72;1.20;;;;;;;1.15;100.00;101757.13;5074865;28;20033;-78
2023/02/24 00:26:55;;;;;;;5.55;1.58;;;;;;;1.09;100.00;101749.50;5074904;28;20141;-77
2023/02/24 00:29:23;;;;;;;8.80;1.70;;;;;;;1.04;100.00;101743.56;5074928;28;20028;-77
2023/02/24 00:31:59;;;;;;;10.88;1.45;;;;;;;1.00;100.00;101744.56;5075335;28;20024;-77
2023/02/24 00:34:30;;;;;;;8.93;1.38;;;;;;;0.99;100.00;101742.88;5074652;28;20028;-78
2023/02/24 00:36:57;;;;;;;13.55;1.73;;;;;;;0.96;100.00;101738.59;5056809;28;20606;-77
2023/02/24 00:39:34;;;;;;;8.55;1.70;;;;;;;0.92;100.00;101739.59;5074534;28;20024;-78
2023/02/24 00:42:04;;;;;;;5.97;1.15;;;;;;;0.87;100.00;101731.91;5074989;28;20039;-77
2023/02/24 00:44:31;;;;;;;14.25;1.20;;;;;;;0.87;100.00;101731.91;5056514;28;20396;-77
2023/02/24 00:46:59;;;;;;;7.43;1.63;;;;;;;0.85;100.00;101725.88;5074576;28;20029;-77
2023/02/24 00:49:24;;;;;;;6.90;1.60;;;;;;;0.81;100.00;101723.44;5074438;28;20035;-79
2023/02/24 00:51:53;;;;;;;11.75;1.38;;;;;;;0.75;100.00;101721.00;5073803;28;20029;-78
2023/02/24 00:54:19;;;;;;;10.02;1.90;;;;;;;0.68;100.00;101715.13;5057248;28;20393;-77
2023/02/24 00:56:46;;;;;;;5.35;1.13;;;;;;;0.73;100.00;101717.59;5074293;28;20036;-78
2023/02/24 00:59:14;;;;;;;10.43;1.45;;;;;;;0.70;100.00;101713.31;5056710;28;20399;-77
2023/02/24 01:01:41;;;;;;;10.63;1.58;;;;;;;0.63;100.00;101702.19;5074236;28;20032;-77
2023/02/24 01:04:10;;;;;;;8.45;1.13;;;;;;;0.54;100.00;101705.16;5074486;28;20032;-77
2023/02/24 01:06:42;;;;;;;14.05;1.77;;;;;;;0.45;100.00;101705.44;5074143;28;20028;-78
2023/02/24 01:09:13;;;;;;;15.35;1.77;;;;;;;0.38;100.00;101698.72;5074309;28;20082;-78
2023/02/24 01:14:26;;;;;;;9.45;1.50;;;;;;;0.64;100.00;101688.19;5074276;28;20520;-78
2023/02/24 01:16:52;;;;;;;7.82;1.80;;;;;;;0.80;100.00;101685.03;5073600;28;20047;-77
2023/02/24 01:19:21;;;;;;;14.05;1.65;;;;;;;0.94;100.00;101679.28;5074083;28;20032;-77
2023/02/24 01:21:46;;;;;;;7.68;1.88;;;;;;;1.02;100.00;101674.63;5073834;28;20020;-78
2023/02/24 01:24:14;;;;;;;10.68;1.98;;;;;;;1.02;100.00;101664.13;5076889;28;20397;-77
2023/02/24 01:26:43;;;;;;;8.07;2.00;;;;;;;1.05;100.00;101657.00;5076141;28;20037;-77
2023/02/24 01:29:08;;;;;;;5.50;1.40;;;;;;;1.09;100.00;101654.25;5076748;28;20033;-78
2023/02/24 01:31:35;;;;;;;11.98;1.80;;;;;;;1.14;100.00;101654.97;5077052;28;20035;-77
2023/02/24 01:34:04;;;;;;;9.32;1.40;;;;;;;1.17;100.00;101642.56;5040417;28;20028;-77
2023/02/24 01:36:31;;;;;;;16.10;1.63;;;;;;;1.26;100.00;101637.91;5073390;28;20032;-78
2023/02/24 01:38:58;;;;;;;14.48;1.83;;;;;;;1.35;100.00;101632.28;5073257;28;20400;-78
2023/02/24 01:41:26;;;;;;;15.07;1.42;;;;;;;1.47;100.00;101628.34;5073809;28;20032;-78
2023/02/24 01:44:08;;;;;;;8.10;1.52;;;;;;;1.58;100.00;101624.38;5073078;28;20123;-78
2023/02/24 01:46:38;;;;;;;3.10;0.80;;;;;;;1.71;100.00;101614.22;5073335;28;20115;-78
2023/02/24 01:49:18;;;;;;;4.07;1.00;;;;;;;1.79;100.00;101616.50;5073413;28;20059;-78
2023/02/24 01:51:49;;;;;;;11.52;1.90;;;;;;;1.86;100.00;101609.25;5072905;28;20021;-77
2023/02/24 01:54:16;;;;;;;;;;;;;;;1.86;100.00;101606.63;5073973;28;20490;-77
2023/02/24 01:56:45;;;;;;;10.60;1.27;;;;;;;1.86;100.00;101606.63;5072866;28;20006;-78
2023/02/24 01:59:10;;;;;;;9.10;1.00;;;;;;;1.89;100.00;101609.13;5073302;28;20082;-77
2023/02/24 02:01:39;;;;;;;15.90;2.20;;;;;;;1.88;100.00;101599.53;5072923;28;20479;-78
2023/02/24 02:04:30;;;;;;;11.52;1.63;;;;;;;1.84;100.00;101597.97;5072918;28;20372;-77
2023/02/24 02:06:57;;;;;;;13.93;1.77;;;;;;;1.83;100.00;101597.09;5072805;28;20060;-77
2023/02/24 02:09:22;;;;;;;6.35;1.17;;;;;;;1.85;100.00;101594.41;5073191;28;20040;-77
2023/02/24 02:11:51;;;;;;;8.30;1.33;;;;;;;1.86;100.00;101583.84;5054438;28;20473;-77
2023/02/24 02:14:19;;;;;;;9.43;1.40;;;;;;;1.90;100.00;101585.44;5055137;28;20107;-76
2023/02/24 02:16:44;;;;;;;5.10;1.40;;;;;;;1.91;100.00;101578.41;5072578;28;20028;-77
2023/02/24 02:19:47;;;;;;;5.85;1.13;;;;;;;1.95;100.00;101577.38;5072812;28;20036;-77
2023/02/24 02:22:22;;;;;;;12.90;1.90;;;;;;;1.93;100.00;101569.56;5072781;28;20032;-76
2023/02/24 02:25:03;;;;;;;6.15;1.23;;;;;;;1.91;100.00;101570.53;5072511;28;20079;-76
2023/02/24 02:27:47;;;;;;;11.88;1.73;;;;;;;1.87;100.00;101571.59;5073331;28;20032;-76
2023/02/24 02:30:27;;;;;;;5.22;1.05;;;;;;;1.84;100.00;101564.72;5072802;28;20024;-77
2023/02/24 02:33:30;;;;;;;8.45;1.42;;;;;;;1.80;100.00;101557.03;5071951;28;20049;-77
2023/02/24 02:36:17;;;;;;;12.77;1.65;;;;;;;1.75;100.00;101552.81;5072411;28;20020;-77
2023/02/24 02:39:22;;;;;;;7.00;1.48;;;;;;;1.74;100.00;101551.09;5072323;28;20035;-77
2023/02/24 02:42:17;;;;;;;7.70;1.13;;;;;;;1.75;100.00;101555.44;5058763;28;20039;-76
2023/02/24 02:44:46;;;;;;;5.93;1.15;;;;;;;1.82;100.00;101552.56;5071370;28;20037;-77
2023/02/24 02:47:27;;;;;;;7.55;1.45;;;;;;;1.89;100.00;101540.88;5072683;28;20098;-76
2023/02/24 02:50:17;;;;;;;9.67;1.33;;;;;;;1.97;100.00;101535.31;5072403;28;20039;-78
2023/02/24 02:52:52;;;;;;;5.18;1.23;;;;;;;2.02;100.00;101538.59;5057674;28;20037;-77
2023/02/24 02:55:35;;;;;;;6.18;0.90;;;;;;;2.06;100.00;101530.53;5072460;28;20472;-76
2023/02/24 02:58:06;;;;;;;5.65;1.02;;;;;;;2.13;100.00;101517.97;5054078;28;20535;-77
2023/02/24 03:00:34;;;;;;;;;;;;;;;2.20;100.00;101514.16;5072931;28;20024;-76
2023/02/24 03:03:08;;;;;;;4.18;1.10;;;;;;;2.21;100.00;101521.13;5054060;28;19908;-77
2023/02/24 03:05:45;;;;;;;5.00;1.63;;;;;;;2.19;100.00;101514.22;5072554;28;20063;-77
2023/02/24 03:08:15;;;;;;;6.82;1.20;;;;;;;2.17;100.00;101519.53;5073013;28;20542;-77
2023/02/24 03:10:44;;;;;;;5.65;0.90;;;;;;;2.19;100.00;101511.59;5071943;28;20033;-77
2023/02/24 03:13:12;;;;;;;7.75;1.10;;;;;;;2.20;100.00;101502.81;5072745;28;20527;-77
2023/02/24 03:15:41;;;;;;;7.45;1.00;;;;;;;2.21;100.00;101492.22;5055383;28;20032;-77
2023/02/24 03:18:13;;;;;;;6.90;1.40;;;;;;;2.27;100.00;101496.34;5075795;28;20496;-77
2023/02/24 03:20:45;;;;;;;8.80;1.27;;;;;;;2.34;100.00;101489.03;5076486;28;20025;-77
2023/02/24 03:23:18;;;;;;;9.98;1.30;;;;;;;2.50;100.00;101486.56;5076068;28;20107;-77
2023/02/24 03:25:57;;;;;;;9.25;1.45;;;;;;;2.57;100.00;101478.31;5075755;28;20052;-79
2023/02/24 03:28:38;;;;;;;8.02;1.13;;;;;;;2.60;100.00;101480.81;5076205;28;20027;-77
2023/02/24 03:31:16;;;;;;;9.70;1.60;;;;;;;2.63;100.00;101474.56;5075671;28;20341;-77
2023/02/24 03:33:55;;;;;;;10.00;1.40;;;;;;;2.65;100.00;101470.06;5076088;28;20029;-77
2023/02/24 03:36:22;;;;;;;7.65;1.30;;;;;;;2.67;100.00;101462.13;5075954;28;20059;-77
2023/02/24 03:38:49;;;;;;;7.18;1.80;;;;;;;2.69;100.00;101455.88;5057530;28;20430;-78
2023/02/24 03:41:15;;;;;;;7.13;1.58;;;;;;;2.74;100.00;101448.59;5058049;28;20427;-77
2023/02/24 03:43:45;;;;;;;7.97;1.42;;;;;;;2.85;100.00;101448.09;5075312;28;20053;-76
2023/02/24 03:46:13;;;;;;;6.97;1.20;;;;;;;2.92;100.00;101444.25;5075490;28;20028;-76
2023/02/24 03:48:43;;;;;;;13.45;1.30;;;;;;;2.91;100.00;101444.31;5075663;28;20032;-77
2023/02/24 03:51:16;;;;;;;5.80;1.17;;;;;;;2.89;100.00;101439.13;5075381;28;20028;-76
2023/02/24 03:53:55;;;;;;;4.93;1.00;;;;;;;2.87;100.00;101433.09;5075936;28;20028;-77
2023/02/24 03:56:44;;;;;;;5.32;0.88;;;;;;;2.84;100.00;101430.63;5075435;28;20028;-77
2023/02/24 03:59:29;;;;;;;7.75;1.17;;;;;;;2.87;100.00;101435.75;5075261;28;20071;-76
2023/02/24 04:02:27;;;;;;;4.70;0.90;;;;;;;2.86;100.00;101433.19;5075276;28;20112;-76
2023/02/24 04:05:23;;;;;;;5.32;1.10;;;;;;;2.81;100.00;101431.63;5075272;28;20135;-78
2023/02/24 04:07:59;;;;;;;6.90;1.30;;;;;;;2.80;100.00;101426.44;5054447;28;20419;-77
2023/02/24 04:10:34;;;;;;;7.70;1.30;;;;;;;2.75;100.00;101420.56;5075631;28;20033;-77
2023/02/24 04:13:10;;;;;;;6.43;1.23;;;;;;;2.77;100.00;101421.34;5075274;28;20094;-75
2023/02/24 04:15:44;;;;;;;7.05;1.40;;;;;;;2.77;100.00;101426.59;5076803;28;20028;-77
2023/02/24 04:18:17;;;;;;;7.95;1.58;;;;;;;2.77;100.00;101422.19;5077032;28;20311;-77
2023/02/24 04:20:44;;;;;;;8.43;1.40;;;;;;;2.75;100.00;101421.41;5076409;28;20032;-77
2023/02/24 04:23:20;;;;;;;13.45;1.60;;;;;;;2.76;100.00;101414.38;5074747;28;20445;-78
2023/02/24 04:25:50;;;;;;;7.03;1.60;;;;;;;2.79;100.00;101412.47;5075278;28;20142;-78
2023/02/24 04:28:20;;;;;;;8.27;1.52;;;;;;;2.83;100.00;101408.72;5074652;28;20334;-77
2023/02/24 04:30:51;;;;;;;12.35;2.60;;;;;;;2.90;100.00;101395.31;5074764;28;20024;-77
2023/02/24 04:33:17;;;;;;;12.18;1.98;;;;;;;2.93;100.00;101387.28;5075005;28;20496;-77
2023/02/24 04:35:49;;;;;;;10.82;2.40;;;;;;;2.93;100.00;101390.75;5074885;28;20032;-77
2023/02/24 04:38:15;;;;;;;11.20;2.13;;;;;;;2.97;100.00;101391.44;5074376;28;20033;-77
2023/02/24 04:40:41;;;;;;;9.32;2.42;;;;;;;2.99;100.00;101379.91;5075001;28;20040;-78
2023/02/24 04:43:07;;;;;;;17.60;2.28;;;;;;;3.02;100.00;101378.09;5073977;28;20044;-77
2023/02/24 04:45:32;;;;;;;9.75;2.25;;;;;;;3.00;100.00;101372.88;5074651;28;20040;-77
2023/02/24 04:48:00;;;;;;;10.77;2.63;;;;;;;3.00;100.00;101363.22;5074398;28;20044;-78
2023/02/24 04:50:37;;;;;;;11.07;2.22;;;;;;;3.01;100.00;101371.94;5074118;28;20435;-77
2023/02/24 04:53:08;;;;;;;9.70;2.00;;;;;;;3.01;100.00;101369.31;5074244;28;20042;-78
2023/02/24 04:55:38;;;;;;;16.88;2.60;;;;;;;3.10;100.00;101354.88;5074344;28;20077;-76
2023/02/24 04:58:18;;;;;;;12.50;2.13;;;;;;;3.13;100.00;101350.28;5074033;28;20078;-77
2023/02/24 05:00:43;;;;;;;22.92;2.97;;;;;;;3.14;100.00;101352.00;5074147;28;20036;-77
2023/02/24 05:03:10;;;;;;;16.20;2.78;;;;;;;3.13;100.00;101346.81;5074012;28;20426;-77
2023/02/24 05:05:36;;;;;;;8.95;2.47;;;;;;;3.14;100.00;101341.47;5074443;28;20028;-77
2023/02/24 05:08:07;;;;;;;9.02;1.90;;;;;;;3.10;100.00;101339.09;5073654;28;20032;-78
2023/02/24 05:10:44;;;;;;;15.07;3.03;;;;;;;3.08;100.00;101344.44;5074494;28;20024;-77
2023/02/24 05:13:16;;;;;;;14.07;2.40;;;;;;;3.10;100.00;101333.84;5073756;28;20040;-76
2023/02/24 05:15:43;;;;;;;7.85;2.53;;;;;;;3.12;100.00;101335.47;5073942;28;20489;-77
2023/02/24 05:18:19;;;;;;;7.10;2.50;;;;;;;3.12;100.00;101322.31;5073759;28;20044;-78
2023/02/24 05:23:42;;;;;;;12.05;2.60;;;;;;;3.06;100.00;101312.13;5074255;28;20075;-77
2023/02/24 05:26:09;;;;;;;15.82;2.40;;;;;;;3.06;100.00;101320.00;5073605;28;20056;-77
2023/02/24 05:28:39;;;;;;;10.95;2.22;;;;;;;3.07;100.00;101305.91;5055924;28;20028;-77
2023/02/24 05:31:14;;;;;;;8.63;1.98;;;;;;;3.12;100.00;101303.91;5073098;28;20032;-77
2023/02/24 05:33:42;;;;;;;11.88;2.45;;;;;;;3.15;100.00;101302.88;5074342;28;20024;-77
2023/02/24 05:36:11;;;;;;;10.95;2.47;;;;;;;3.15;100.00;101301.13;5073361;28;20028;-77
2023/02/24 05:38:37;;;;;;;10.13;2.28;;;;;;;3.17;100.00;101293.16;5073141;28;20056;-77
2023/02/24 05:41:16;;;;;;;7.07;1.75;;;;;;;3.20;100.00;101297.41;5073182;28;20033;-77
2023/02/24 05:43:46;;;;;;;7.70;2.25;;;;;;;3.21;100.00;101297.31;5073423;28;20087;-77
2023/02/24 05:46:15;;;;;;;12.37;2.50;;;;;;;3.21;100.00;101284.16;5073104;28;20056;-76
2023/02/24 05:48:42;;;;;;;6.30;2.20;;;;;;;3.20;100.00;101274.56;5073390;28;20032;-76
2023/02/24 05:51:10;;;;;;;13.05;2.42;;;;;;;3.23;100.00;101263.06;5072682;28;20021;-76
2023/02/24 05:53:40;;;;;;;8.73;2.22;;;;;;;3.26;100.00;101262.88;5073538;28;20377;-76
2023/02/24 05:56:09;;;;;;;9.25;2.20;;;;;;;3.26;100.00;101258.47;5072618;28;20040;-77
2023/02/24 05:58:38;;;;;;;11.82;1.75;;;;;;;3.29;100.00;101267.97;5073212;28;20032;-75
2023/02/24 06:01:17;;;;;;;9.55;2.28;;;;;;;3.32;100.00;101257.28;5072771;28;20469;-77
2023/02/24 06:03:46;;;;;;;15.20;2.20;;;;;;;3.35;100.00;101242.19;5073418;28;20040;-77
2023/02/24 06:06:15;;;;;;;10.07;2.08;;;;;;;3.37;100.00;101246.53;5072556;28;20036;-77
2023/02/24 06:08:48;;;;;;;7.82;1.98;;;;;;;3.41;100.00;101248.06;5055050;28;20032;-75
2023/02/24 06:11:14;;;;;;;8.52;1.88;;;;;;;3.42;100.00;101244.47;5072493;28;20127;-79
2023/02/24 06:13:39;;;;;;;10.75;2.08;;;;;;;3.40;100.00;101244.56;5073179;28;20048;-77
2023/02/24 06:16:05;;;;;;;20.83;2.53;;;;;;;3.37;100.00;101223.69;5072527;28;20034;-77
2023/02/24 06:18:31;;;;;;;7.15;1.75;;;;;;;3.40;100.00;101220.88;5072963;28;20036;-77
2023/02/24 06:21:00;;;;;;;12.25;2.35;;;;;;;3.46;100.00;101220.59;5072851;28;20032;-77
2023/02/24 06:23:26;;;;;;;15.55;2.30;;;;;;;3.46;100.00;101219.72;5072508;28;20056;-78
2023/02/24 06:25:52;;;;;;;11.38;2.13;;;;;;;3.47;100.00;101213.53;5073047;28;20087;-78
2023/02/24 06:28:18;;;;;;;13.20;2.38;;;;;;;3.49;100.00;101207.25;5072595;28;20457;-78
2023/02/24 06:30:44;;;;;;;9.98;2.42;;;;;;;3.50;100.00;101200.19;5038561;28;20469;-77
2023/02/24 06:33:09;;;;;;;14.43;2.58;;;;;;;3.50;100.00;101201.03;5072210;28;20040;-78
2023/02/24 06:35:37;;;;;;;15.57;2.60;;;;;;;3.49;100.00;101187.97;5072672;28;20025;-79
2023/02/24 06:38:03;;;;;;;12.70;2.60;;;;;;;3.51;100.00;101199.28;5054546;28;20370;-78
2023/02/24 06:40:30;;;;;;;15.25;4.30;;;;;;;3.50;100.00;101189.69;5054633;28;20040;-78
2023/02/24 06:42:55;;;;;;;12.50;2.60;;;;;;;3.55;100.00;101199.94;5072340;28;20418;-79
2023/02/24 06:45:23;;;;;;;16.73;2.25;;;;;;;3.58;100.00;101176.94;5071889;28;20083;-77
2023/02/24 06:47:48;;;;;;;15.70;2.35;;;;;;;3.59;100.00;101177.78;5072753;28;20469;-77
2023/02/24 06:50:18;;;;;;;13.68;2.30;;;;;;;3.60;100.00;101167.19;5053299;28;20035;-77
2023/02/24 06:52:48;;;;;;;11.88;2.25;;;;;;;3.61;100.00;101170.66;5072657;28;20054;-77
2023/02/24 06:55:26;;;;;;;12.10;2.50;;;;;;;3.59;100.00;101167.28;5071755;28;20568;-77
2023/02/24 06:57:56;;;;;;;8.93;2.10;;;;;;;3.59;100.00;101172.53;5072929;28;20033;-76
2023/02/24 07:00:38;;;;;;;13.77;2.50;;;;;;;3.60;100.00;101171.56;5071920;28;20094;-76
2023/02/24 07:03:15;;;;;;;10.90;2.75;;;;;;;3.56;100.00;101175.34;5073833;28;20037;-76
2023/02/24 07:05:49;;;;;;;11.75;1.95;;;;;;;3.57;100.00;101175.25;5072905;28;20515;-76
2023/02/24 07:08:26;;;;;;;5.93;1.70;;;;;;;3.59;100.00;101168.09;5053958;28;20036;-77
2023/02/24 07:10:56;;;;;;;15.98;2.50;;;;;;;3.62;100.00;101175.81;5072355;28;20028;-76
2023/02/24 07:13:23;;;;;;;24.20;2.90;;;;;;;3.63;100.00;101164.38;5071974;28;20162;-76
2023/02/24 07:15:50;;;;;;;11.45;2.55;;;;;;;3.63;100.00;101153.84;5072226;28;20040;-76
2023/02/24 07:18:16;;;;;;;10.75;2.38;;;;;;;3.65;100.00;101151.13;5071814;28;20037;-76
2023/02/24 07:20:44;;;;;;;27.85;2.60;;;;;;;3.62;100.00;101153.94;5071854;28;20040;-77
2023/02/24 07:23:13;;;;;;;22.50;2.67;;;;;;;3.56;100.00;101139.34;5072150;28;20062;-74
2023/02/24 07:25:40;;;;;;;16.73;3.15;;;;;;;3.58;100.00;101142.72;5072123;28;20066;-75
2023/02/24 07:28:06;;;;;;;13.38;2.60;;;;;;;3.56;100.00;101130.59;5071861;28;20112;-76
2023/02/24 07:30:32;;;;;;;16.15;3.30;;;;;;;3.55;100.00;101135.00;5037247;28;20475;-77
2023/02/24 07:32:58;;;;;;;16.55;2.85;;;;;;;3.57;100.00;101138.41;5072158;28;20424;-77
2023/02/24 07:35:24;;;;;;;15.90;3.33;;;;;;;3.57;100.00;101129.66;5071771;28;20104;-77
2023/02/24 07:37:50;;;;;;;11.05;2.72;;;;;;;3.57;100.00;101133.16;5072589;28;20146;-77
2023/02/24 07:40:20;;;;;;;15.82;2.67;;;;;;;3.56;100.00;101130.59;5071685;28;20120;-77
2023/02/24 07:42:46;;;;;;;14.48;2.50;;;;;;;3.59;100.00;101133.06;5071586;28;20028;-78
2023/02/24 07:45:13;;;;;;;14.50;2.58;;;;;;;3.62;100.00;101130.25;5072079;28;20045;-76
2023/02/24 07:47:39;;;;;;;16.60;2.95;;;;;;;3.65;100.00;101130.06;5072148;28;20465;-76
2023/02/24 07:50:12;;;;;;;15.38;2.45;;;;;;;3.67;100.00;101115.03;5071875;28;20041;-77
2023/02/24 07:52:37;;;;;;;12.35;2.53;;;;;;;3.68;100.00;101117.59;5054361;28;20099;-76
2023/02/24 07:55:03;;;;;;;50.95;6.05;;;;;;;3.67;100.00;101112.41;5071998;28;20079;-77
2023/02/24 07:57:32;;;;;;;11.02;2.85;;;;;;;3.66;100.00;101119.47;5071175;28;20029;-77
2023/02/24 07:59:58;;;;;;;19.63;3.17;;;;;;;3.65;100.00;101106.41;5071899;28;20035;-78
2023/02/24 08:02:24;;;;;;;33.10;3.92;;;;;;;3.66;100.00;101108.09;5073902;28;20041;-78
2023/02/24 08:04:50;;;;;;;10.20;2.90;;;;;;;3.69;100.00;101110.56;5075466;28;20039;-79
2023/02/24 08:07:22;;;;;;;11.40;2.30;;;;;;;3.71;100.00;101106.03;5075411;28;20454;-77
2023/02/24 08:12:34;;;;;;;16.92;2.65;;;;;;;3.75;100.00;101104.94;5075286;28;20477;-79
2023/02/24 08:15:07;;;;;;;17.30;2.85;;;;;;;3.76;100.00;101103.13;5075385;28;20032;-77
2023/02/24 08:17:33;;;;;;;15.73;2.75;;;;;;;3.75;100.00;101106.69;5075116;28;20067;-79
2023/02/24 08:22:45;;;;;;;9.23;1.80;;;;;;;3.73;100.00;101098.88;5074792;28;20051;-79
2023/02/24 08:25:17;;;;;;;14.70;2.72;;;;;;;3.73;100.00;101098.06;5074699;28;20419;-77
2023/02/24 08:27:43;;;;;;;;;;;;;;;3.69;100.00;101098.22;5075106;28;20075;-77
2023/02/24 08:30:22;;;;;;;20.58;3.10;;;;;;;3.68;100.00;101091.25;5075093;28;19912;-78
2023/02/24 08:32:55;;;;;;;17.25;2.22;;;;;;;3.71;100.00;101080.56;5075049;28;20499;-77
2023/02/24 08:35:30;;;;;;;13.18;2.58;;;;;;;3.78;100.00;101081.06;5074677;28;20457;-79
2023/02/24 08:38:08;;;;;;;11.80;2.60;;;;;;;3.83;100.00;101072.91;5075179;28;20040;-79
2023/02/24 08:40:39;;;;;;;15.00;3.08;;;;;;;3.88;100.00;101068.19;5074668;28;20500;-81
2023/02/24 08:43:23;;;;;;;18.55;2.67;;;;;;;3.93;100.00;101067.94;5057436;28;20032;-79
2023/02/24 08:45:55;;;;;;;16.77;2.28;;;;;;;3.97;100.00;101067.69;5073762;28;20079;-80
2023/02/24 08:48:36;;;;;;;13.07;2.78;;;;;;;4.02;100.00;101064.78;5061122;28;20160;-79
2023/02/24 08:51:03;;;;;;;11.07;2.55;;;;;;;3.99;100.00;101067.59;5076144;28;20025;-81
2023/02/24 08:53:30;;;;;;;14.50;2.30;;;;;;;3.99;100.00;101065.78;5078929;28;20050;-83
2023/02/24 08:56:08;;;;;;;11.02;2.38;;;;;;;3.98;100.00;101064.09;5077076;28;20029;-82
2023/02/24 08:58:39;;;;;;;11.18;2.08;;;;;;;3.95;100.00;101060.81;5074894;28;20143;-79
2023/02/24 09:01:17;;;;;;;10.85;1.92;;;;;;;3.97;100.00;101057.16;5073561;28;20163;-76
2023/02/24 09:03:47;;;;;;;17.15;2.67;;;;;;;3.96;100.00;101049.34;5073390;28;20028;-79
2023/02/24 09:06:24;;;;;;;20.05;2.55;;;;;;;3.92;100.00;101048.66;5073676;28;20108;-79
2023/02/24 09:09:16;;;;;;;14.57;2.92;;;;;;;3.94;100.00;101048.56;5074066;28;20408;-80
2023/02/24 09:11:37;;;;;;;16.48;2.15;;;;;;;3.92;100.00;101043.38;5073089;28;20032;-82
2023/02/24 09:14:03;;;;;;;10.90;2.45;;;;;;;3.94;100.00;101052.06;5072628;28;20380;-81
2023/02/24 09:16:29;;;;;;;13.07;2.78;;;;;;;3.91;100.00;101041.69;5072059;28;20028;-76
2023/02/24 09:24:12;;;;;;;21.90;3.58;;;;;;;3.89;100.00;101028.63;5070611;28;20521;-75
2023/02/24 09:26:43;;;;;;;17.33;3.13;;;;;;;3.85;100.00;101035.03;5072622;28;20028;-77
2023/02/24 09:32:03;;;;;;;15.30;3.85;;;;;;;3.83;100.00;101022.88;5073877;28;20039;-83
2023/02/24 09:34:30;;;;;;;17.10;3.70;;;;;;;3.80;100.00;101010.75;5073559;28;20029;-84
2023/02/24 09:37:02;;;;;;;21.55;5.32;;;;;;;3.79;100.00;101016.97;5074506;28;20048;-77
2023/02/24 09:40:21;;;;;;;15.95;3.97;;;;;;;3.81;100.00;101011.59;5075688;28;20040;-78
2023/02/24 09:45:00;;;;;;;17.17;5.97;;;;;;;3.87;100.00;101012.06;5060779;28;20068;-83
2023/02/24 09:47:55;;;;;;;15.98;6.07;;;;;;;3.93;100.00;101002.13;5070792;28;20048;-78
2023/02/24 09:50:23;;;;;;;16.48;7.03;;;;;;;3.96;100.00;101004.59;5073174;28;20043;-80
2023/02/24 09:52:55;;;;;;;16.98;6.57;;;;;;;3.98;100.00;101006.16;5072315;28;20047;-76
2023/02/24 09:55:37;;;;;;;17.58;6.95;;;;;;;3.98;100.00;100998.25;5072959;28;20150;-72
2023/02/24 09:58:27;;;;;;;24.80;8.55;;;;;;;4.00;100.00;100995.53;5072595;28;20040;-75
2023/02/24 10:01:19;;;;;;;20.63;8.13;;;;;;;4.03;100.00;100992.72;5072319;28;20036;-76
2023/02/24 10:03:50;;;;;;;17.00;8.40;;;;;;;4.03;100.00;100990.94;5072059;28;20429;-74
2023/02/24 10:06:21;;;;;;;22.75;9.07;;;;;;;4.02;100.00;100996.31;5072201;28;20416;-76
2023/02/24 10:08:53;;;;;;;17.58;9.18;;;;;;;4.04;100.00;100987.34;5071935;28;20035;-76
2023/02/24 10:11:31;;;;;;;21.05;9.63;;;;;;;4.04;100.00;100992.63;5072530;28;20047;-79
2023/02/24 10:14:04;;;;;;;21.58;9.85;;;;;;;4.07;100.00;100994.22;5072242;28;20028;-77
2023/02/24 10:16:40;;;;;;;21.33;9.30;;;;;;;4.08;100.00;100987.19;5072084;28;20032;-78
2023/02/24 10:19:25;;;;;;;24.85;9.68;;;;;;;4.08;100.00;100981.94;5054781;28;20028;-79
2023/02/24 10:21:59;;;;;;;24.38;9.75;;;;;;;4.10;100.00;100975.59;5071810;28;20476;-81
2023/02/24 10:24:37;;;;;;;22.65;10.88;;;;;;;4.10;100.00;100974.78;5073049;28;20052;-84
2023/02/24 10:27:26;;;;;;;18.75;9.35;;;;;;;4.12;100.00;100970.25;5072317;28;20055;-78
2023/02/24 10:30:04;;;;;;;21.20;10.50;;;;;;;4.13;100.00;100970.16;5071472;28;20052;-81
2023/02/24 10:32:42;;;;;;;20.65;10.18;;;;;;;4.17;100.00;100976.09;5071883;28;20388;-78
2023/02/24 10:35:15;;;;;;;17.85;9.27;;;;;;;4.18;100.00;100956.69;5072611;28;20044;-76
2023/02/24 10:37:41;;;;;;;20.02;10.52;;;;;;;4.20;100.00;100970.63;5071452;28;20389;-79
2023/02/24 10:40:16;;;;;;;25.45;10.77;;;;;;;4.20;100.00;100955.66;5054240;28;20049;-81
2023/02/24 10:42:46;;;;;;;19.77;10.90;;;;;;;4.24;100.00;100967.72;5070915;28;20063;-82
2023/02/24 10:45:16;;;;;;;17.77;9.03;;;;;;;4.24;100.00;100958.97;5072247;28;20035;-79
2023/02/24 10:47:44;;;;;;;19.40;9.43;;;;;;;4.23;100.00;100960.75;5071311;28;20040;-77
2023/02/24 10:50:24;;;;;;;17.92;9.55;;;;;;;4.23;100.00;100968.66;5071644;28;20043;-80
2023/02/24 10:55:27;;;;;;;19.52;9.88;;;;;;;4.30;100.00;100968.25;5071804;28;20064;-79
2023/02/24 10:58:14;;;;;;;14.80;9.07;;;;;;;4.35;100.00;100960.94;5053422;28;20082;-77
2023/02/24 11:03:40;;;;;;;17.13;9.57;;;;;;;4.56;100.00;100956.94;5071759;28;20583;-77
2023/02/24 11:06:41;;;;;;;19.95;10.40;;;;;;;4.62;100.00;100952.22;5072048;28;20070;-77
2023/02/24 11:09:18;;;;;;;23.40;9.18;;;;;;;4.65;100.00;100958.16;5071725;28;20032;-78
2023/02/24 11:17:25;;;;;;;13.93;8.07;;;;;;;4.63;100.00;100953.91;5071588;28;20039;-79
2023/02/24 11:20:09;;;;;;;13.85;8.13;;;;;;;4.61;100.00;100950.53;5071087;28;20060;-80
2023/02/24 11:22:40;;;;;;;15.63;8.40;;;;;;;4.58;100.00;100941.88;5071422;28;20107;-78
2023/02/24 11:25:21;;;;;;;18.77;8.70;;;;;;;4.58;100.00;100936.63;5071783;28;20475;-80
2023/02/24 11:27:47;;;;;;;23.73;9.40;;;;;;;4.66;100.00;100940.53;5071858;28;20029;-80
2023/02/24 11:30:40;;;;;;;21.92;8.15;;;;;;;4.69;100.00;100938.56;5071369;28;20447;-81
2023/02/24 11:33:45;;;;;;;24.88;6.90;;;;;;;4.71;100.00;100931.38;5072324;28;20025;-83
2023/02/24 11:36:40;;;;;;;29.10;7.80;;;;;;;4.75;100.00;100914.44;5052107;28;20127;-84
2023/02/24 11:39:15;;;;;;;20.50;8.48;;;;;;;4.94;100.00;100926.41;5076011;28;20037;-86
2023/02/24 11:41:49;;;;;;;27.33;9.23;;;;;;;5.07;100.00;100924.66;5075307;28;20139;-82
2023/02/24 11:44:27;;;;;;;38.65;8.40;;;;;;;5.21;100.00;100917.63;5075620;28;20028;-82
2023/02/24 11:46:59;;;;;;;25.15;7.75;;;;;;;5.40;100.00;100922.50;5075084;28;20179;-80
2023/02/24 11:49:38;;;;;;;25.38;8.02;;;;;;;5.59;100.00;100914.19;5075386;28;20457;-82
2023/02/24 11:52:17;;;;;;;24.70;7.28;;;;;;;5.78;100.00;100911.16;5075465;28;20478;-78
2023/02/24 11:54:51;;;;;;;28.88;6.65;;;;;;;6.01;100.00;100904.28;5074849;28;20028;-80
2023/02/24 11:57:22;;;;;;;24.88;6.38;;;;;;;6.26;100.00;100900.75;5075249;28;20028;-79
2023/02/24 11:59:59;;;;;;;20.52;4.90;;;;;;;6.47;100.00;100897.50;5074752;28;20029;-80
2023/02/24 12:02:38;;;;;;;23.50;4.93;;;;;;;6.61;100.00;100894.69;5075102;28;20457;-79
2023/02/24 12:05:18;;;;;;;20.38;3.72;;;;;;;6.67;100.00;100896.91;5074818;28;20392;-81
2023/02/24 12:07:49;;;;;;;23.40;4.65;;;;;;;6.74;100.00;100896.47;5074779;28;20058;-78
2023/02/24 12:10:20;;;;;;;;;;;;;;;6.78;100.00;100887.34;5075256;28;20032;-78
2023/02/24 12:13:10;;;;;;;28.08;4.18;;;;;;;6.77;100.00;100880.38;5056512;28;20411;-79
2023/02/24 12:15:42;;;;;;;25.98;3.67;;;;;;;6.84;100.00;100890.38;5075043;28;20047;-81
2023/02/24 12:18:32;;;;;;;23.67;3.70;;;;;;;7.04;100.00;100886.22;5075120;28;20032;-80
2023/02/24 12:21:07;;;;;;;26.90;3.85;;;;;;;7.29;100.00;100872.97;5074455;28;20109;-76